createdAt,value
2023-02-07T00:00:33.453Z,28.20
2023-02-07T00:01:35.219Z,29.38
2023-02-07T00:02:36.879Z,30.15
2023-02-07T00:03:38.660Z,29.63
2023-02-07T00:04:40.261Z,26.08
2023-02-07T00:05:41.893Z,25.98
2023-02-07T00:06:43.520Z,26.05
2023-02-07T00:07:45.168Z,29.20
2023-02-07T00:08:47.112Z,31.67
2023-02-07T00:09:48.807Z,30.55
2023-02-07T00:10:50.424Z,32.63
2023-02-07T00:11:52.087Z,34.57
2023-02-07T00:12:53.938Z,29.83
2023-02-07T00:13:56.598Z,30.45
2023-02-07T00:14:58.213Z,29.33
2023-02-07T00:15:59.855Z,33.22
2023-02-07T00:17:01.685Z,28.80
2023-02-07T00:18:03.467Z,30.30
2023-02-07T00:19:05.257Z,30.15
2023-02-07T00:20:07.318Z,30.10
2023-02-07T00:21:11.074Z,30.27
2023-02-07T00:22:12.799Z,29.37
2023-02-07T00:23:14.384Z,31.33
2023-02-07T00:24:16.041Z,32.05
2023-02-07T00:25:17.731Z,34.90
2023-02-07T00:26:21.134Z,28.98
2023-02-07T00:27:22.912Z,33.05
2023-02-07T00:28:24.720Z,28.57
2023-02-07T00:29:26.502Z,29.88
2023-02-07T00:30:28.183Z,28.63
2023-02-07T00:31:34.187Z,25.80
2023-02-07T00:32:35.885Z,29.50
2023-02-07T00:33:38.244Z,31.33
2023-02-07T00:34:39.991Z,28.80
2023-02-07T00:35:41.656Z,29.40
2023-02-07T00:36:43.328Z,31.50
2023-02-07T00:37:44.911Z,32.63
2023-02-07T00:38:47.940Z,28.67
2023-02-07T00:39:49.595Z,35.05
2023-02-07T00:40:51.195Z,28.60
2023-02-07T00:41:53.945Z,30.83
2023-02-07T00:42:55.544Z,29.63
2023-02-07T00:43:57.290Z,28.00
2023-02-07T00:44:58.902Z,31.80
2023-02-07T00:46:02.032Z,30.42
2023-02-07T00:47:03.756Z,28.77
2023-02-07T00:48:05.501Z,30.20
2023-02-07T00:49:07.630Z,26.60
2023-02-07T00:50:09.383Z,32.08
2023-02-07T00:51:11.323Z,31.02
2023-02-07T00:52:13.009Z,33.22
2023-02-07T00:53:14.740Z,34.67
2023-02-07T00:54:16.383Z,46.28
2023-02-07T00:55:18.083Z,58.65
2023-02-07T00:56:20.002Z,53.45
2023-02-07T00:57:21.649Z,55.45
2023-02-07T00:58:23.515Z,46.25
2023-02-07T00:59:25.217Z,41.63
2023-02-07T01:00:26.806Z,40.40
2023-02-07T01:01:28.649Z,44.22
2023-02-07T01:02:30.323Z,40.50
2023-02-07T01:03:32.162Z,37.40
2023-02-07T01:04:33.841Z,40.22
2023-02-07T01:05:35.842Z,47.05
2023-02-07T01:06:37.769Z,56.13
2023-02-07T01:07:39.410Z,72.18
2023-02-07T01:08:41.175Z,80.70
2023-02-07T01:09:42.881Z,75.35
2023-02-07T01:10:44.885Z,57.50
2023-02-07T01:11:46.519Z,55.45
2023-02-07T01:12:48.113Z,42.10
2023-02-07T01:13:49.703Z,38.05
2023-02-07T01:14:51.302Z,35.42
2023-02-07T01:15:52.947Z,32.83
2023-02-07T01:16:54.674Z,28.65
2023-02-07T01:17:56.522Z,29.13
2023-02-07T01:18:58.595Z,29.08
2023-02-07T01:20:00.418Z,27.00
2023-02-07T01:21:02.012Z,34.20
2023-02-07T01:22:04.607Z,32.15
2023-02-07T01:23:06.409Z,31.55
2023-02-07T01:24:08.500Z,26.38
2023-02-07T01:25:10.263Z,27.38
2023-02-07T01:26:11.874Z,30.23
2023-02-07T01:27:13.508Z,28.33
2023-02-07T01:28:15.323Z,28.33
2023-02-07T01:29:17.110Z,25.08
2023-02-07T01:30:18.874Z,25.55
2023-02-07T01:31:22.213Z,25.90
2023-02-07T01:32:23.912Z,26.73
2023-02-07T01:33:25.496Z,25.38
2023-02-07T01:34:27.149Z,25.38
2023-02-07T01:35:28.813Z,25.65
2023-02-07T01:36:30.435Z,28.10
2023-02-07T01:37:32.034Z,28.05
2023-02-07T01:38:33.751Z,27.45
2023-02-07T01:39:35.392Z,27.40
2023-02-07T01:40:38.058Z,26.38
2023-02-07T01:41:39.729Z,26.58
2023-02-07T01:42:41.326Z,28.63
2023-02-07T01:44:05.927Z,28.92
2023-02-07T01:45:13.416Z,25.63
2023-02-07T01:46:15.067Z,29.58
2023-02-07T01:47:18.954Z,28.65
2023-02-07T01:48:23.805Z,31.27
2023-02-07T01:49:27.338Z,26.65
2023-02-07T01:50:28.972Z,28.50
2023-02-07T01:51:30.639Z,28.85
2023-02-07T01:52:34.926Z,25.45
2023-02-07T01:53:37.036Z,25.98
2023-02-07T01:54:38.641Z,29.23
2023-02-07T01:55:40.485Z,29.17
2023-02-07T01:56:45.741Z,28.45
2023-02-07T01:57:47.347Z,29.88
2023-02-07T01:58:49.024Z,25.70
2023-02-07T01:59:51.984Z,29.27
2023-02-07T02:00:53.605Z,26.17
2023-02-07T02:01:55.455Z,27.52
2023-02-07T02:02:57.120Z,29.17
2023-02-07T02:03:58.891Z,30.67
2023-02-07T02:05:00.539Z,25.50
2023-02-07T02:06:02.200Z,26.00
2023-02-07T02:07:04.516Z,27.15
2023-02-07T02:08:06.210Z,29.25
2023-02-07T02:09:09.477Z,25.20
2023-02-07T02:10:18.904Z,24.60
2023-02-07T02:11:45.411Z,23.33
2023-02-07T02:13:18.820Z,24.38
2023-02-07T02:14:35.488Z,24.08
2023-02-07T02:15:43.402Z,28.38
2023-02-07T02:17:02.662Z,22.77
2023-02-07T02:18:23.097Z,24.45
2023-02-07T02:19:37.074Z,24.17
2023-02-07T02:20:58.655Z,26.33
2023-02-07T02:22:18.558Z,21.92
2023-02-07T02:23:40.454Z,21.43
2023-02-07T02:24:53.274Z,24.73
2023-02-07T02:26:00.550Z,20.77
2023-02-07T02:27:11.305Z,20.52
2023-02-07T02:28:28.056Z,24.10
2023-02-07T02:29:32.272Z,24.83
2023-02-07T02:30:39.814Z,26.35
2023-02-07T02:31:56.118Z,21.48
2023-02-07T02:33:14.553Z,24.05
2023-02-07T02:34:22.909Z,22.92
2023-02-07T02:35:42.933Z,23.43
2023-02-07T02:37:25.756Z,19.60
2023-02-07T02:38:35.612Z,21.48
2023-02-07T02:40:02.289Z,22.15
2023-02-07T02:41:12.000Z,18.83
2023-02-07T02:42:22.232Z,21.53
2023-02-07T02:43:46.532Z,28.13
2023-02-07T02:44:57.636Z,22.80
2023-02-07T02:46:21.546Z,22.05
2023-02-07T02:47:23.160Z,21.08
2023-02-07T02:48:25.051Z,24.90
2023-02-07T02:49:26.694Z,23.08
2023-02-07T02:50:29.193Z,22.90
2023-02-07T02:51:31.621Z,22.63
2023-02-07T02:52:49.588Z,21.83
2023-02-07T02:53:56.314Z,21.90
2023-02-07T02:54:57.908Z,24.95
2023-02-07T02:56:11.796Z,23.88
2023-02-07T02:57:34.698Z,24.02
2023-02-07T02:58:51.375Z,27.45
2023-02-07T03:00:12.238Z,21.53
2023-02-07T03:01:34.188Z,26.23
2023-02-07T03:02:57.506Z,26.98
2023-02-07T03:04:17.259Z,29.73
2023-02-07T03:05:57.473Z,23.13
2023-02-07T03:07:40.268Z,20.47
2023-02-07T03:09:03.830Z,22.17
2023-02-07T03:10:37.887Z,22.48
2023-02-07T03:12:09.904Z,19.65
2023-02-07T03:13:32.588Z,23.63
2023-02-07T03:14:36.300Z,23.83
2023-02-07T03:16:10.942Z,24.75
2023-02-07T03:17:21.422Z,25.45
2023-02-07T03:19:01.467Z,26.25
2023-02-07T03:20:17.699Z,25.02
2023-02-07T03:21:31.030Z,24.93
2023-02-07T03:22:32.706Z,23.05
2023-02-07T03:23:34.299Z,24.35
2023-02-07T03:24:36.095Z,27.13
2023-02-07T03:25:38.218Z,27.55
2023-02-07T03:26:40.047Z,27.53
2023-02-07T03:27:41.850Z,26.27
2023-02-07T03:28:43.457Z,24.10
2023-02-07T03:29:47.000Z,23.25
2023-02-07T03:30:50.419Z,23.50
2023-02-07T03:31:53.955Z,23.33
2023-02-07T03:32:58.117Z,25.23
2023-02-07T03:34:04.481Z,23.42
2023-02-07T03:35:14.295Z,21.83
2023-02-07T03:36:25.773Z,23.45
2023-02-07T03:37:51.117Z,25.17
2023-02-07T03:38:52.705Z,23.13
2023-02-07T03:39:54.402Z,22.27
2023-02-07T03:40:59.977Z,23.95
2023-02-07T03:42:04.316Z,27.35
2023-02-07T03:43:08.583Z,23.83
2023-02-07T03:44:10.199Z,23.40
2023-02-07T03:45:14.543Z,22.60
2023-02-07T03:46:16.201Z,27.77
2023-02-07T03:47:18.672Z,25.27
2023-02-07T03:48:20.276Z,26.02
2023-02-07T03:49:22.200Z,24.40
2023-02-07T03:50:23.843Z,24.58
2023-02-07T03:51:25.642Z,26.00
2023-02-07T03:52:27.301Z,26.98
2023-02-07T03:53:28.989Z,28.67
2023-02-07T03:54:30.608Z,25.67
2023-02-07T03:55:32.497Z,27.65
2023-02-07T03:56:34.197Z,28.85
2023-02-07T03:57:35.800Z,28.83
2023-02-07T03:58:37.446Z,23.80
2023-02-07T03:59:39.271Z,33.08
2023-02-07T04:00:40.994Z,31.00
2023-02-07T04:01:43.449Z,34.30
2023-02-07T04:02:45.100Z,25.83
2023-02-07T04:03:46.724Z,29.75
2023-02-07T04:04:48.460Z,30.48
2023-02-07T04:05:50.175Z,27.98
2023-02-07T04:06:51.885Z,27.10
2023-02-07T04:07:53.694Z,26.83
2023-02-07T04:08:55.280Z,27.48
2023-02-07T04:09:56.865Z,27.80
2023-02-07T04:10:59.792Z,29.50
2023-02-07T04:12:01.398Z,31.08
2023-02-07T04:13:03.008Z,27.77
2023-02-07T04:14:04.875Z,23.70
2023-02-07T04:15:07.096Z,26.55
2023-02-07T04:16:08.972Z,25.65
2023-02-07T04:17:10.680Z,23.48
2023-02-07T04:18:12.430Z,26.40
2023-02-07T04:19:14.135Z,23.52
2023-02-07T04:20:15.789Z,29.27
2023-02-07T04:21:17.453Z,29.70
2023-02-07T04:22:19.148Z,26.35
2023-02-07T04:23:20.745Z,24.00
2023-02-07T04:24:22.374Z,25.60
2023-02-07T04:25:23.976Z,27.35
2023-02-07T04:26:25.606Z,26.98
2023-02-07T04:27:27.333Z,27.63
2023-02-07T04:28:29.241Z,24.27
2023-02-07T04:29:30.829Z,29.10
2023-02-07T04:30:33.438Z,29.77
2023-02-07T04:31:35.154Z,27.55
2023-02-07T04:32:36.833Z,24.55
2023-02-07T04:33:38.474Z,30.92
2023-02-07T04:34:40.092Z,28.02
2023-02-07T04:35:41.750Z,37.58
2023-02-07T04:36:43.344Z,41.88
2023-02-07T04:37:44.933Z,40.10
2023-02-07T04:38:46.613Z,38.80
2023-02-07T04:39:48.276Z,36.30
2023-02-07T04:40:49.956Z,36.50
2023-02-07T04:41:51.667Z,34.05
2023-02-07T04:42:53.288Z,36.95
2023-02-07T04:43:54.989Z,36.28
2023-02-07T04:44:56.638Z,29.45
2023-02-07T04:45:58.320Z,31.20
2023-02-07T04:46:59.952Z,32.25
2023-02-07T04:48:01.599Z,35.33
2023-02-07T04:49:04.366Z,33.05
2023-02-07T04:50:06.244Z,31.00
2023-02-07T04:51:07.920Z,31.27
2023-02-07T04:52:09.524Z,31.52
2023-02-07T04:53:11.150Z,34.35
2023-02-07T04:54:12.816Z,30.42
2023-02-07T04:55:14.447Z,29.63
2023-02-07T04:56:16.121Z,29.05
2023-02-07T04:57:17.753Z,30.42
2023-02-07T04:58:20.143Z,35.08
2023-02-07T04:59:21.772Z,32.33
2023-02-07T05:00:23.516Z,33.25
2023-02-07T05:01:25.167Z,34.35
2023-02-07T05:02:26.981Z,35.88
2023-02-07T05:03:28.589Z,32.42
2023-02-07T05:04:30.264Z,32.47
2023-02-07T05:05:31.938Z,34.25
2023-02-07T05:06:33.582Z,30.25
2023-02-07T05:07:35.190Z,35.70
2023-02-07T05:08:36.959Z,34.15
2023-02-07T05:09:38.586Z,31.10
2023-02-07T05:10:40.373Z,28.45
2023-02-07T05:11:42.017Z,30.05
2023-02-07T05:12:43.619Z,28.50
2023-02-07T05:13:45.313Z,35.25
2023-02-07T05:14:46.912Z,31.65
2023-02-07T05:15:48.573Z,28.30
2023-02-07T05:16:50.225Z,30.55
2023-02-07T05:17:52.580Z,28.38
2023-02-07T05:18:54.177Z,26.80
2023-02-07T05:19:55.843Z,34.55
2023-02-07T05:20:57.984Z,29.25
2023-02-07T05:21:59.641Z,31.85
2023-02-07T05:23:01.292Z,31.35
2023-02-07T05:24:02.937Z,28.55
2023-02-07T05:25:04.868Z,30.65
2023-02-07T05:26:06.599Z,31.80
2023-02-07T05:27:08.255Z,42.10
2023-02-07T05:28:10.142Z,86.25
2023-02-07T05:29:11.757Z,92.57
2023-02-07T05:30:13.762Z,69.57
2023-02-07T05:31:15.563Z,311.23
2023-02-07T05:32:35.953Z,461.52
2023-02-07T05:33:37.559Z,251.98
2023-02-07T05:34:39.272Z,185.02
2023-02-07T05:35:42.011Z,142.80
2023-02-07T05:36:43.667Z,77.57
2023-02-07T05:37:45.303Z,67.95
2023-02-07T05:38:46.908Z,45.95
2023-02-07T05:39:48.532Z,40.55
2023-02-07T05:40:50.252Z,41.72
2023-02-07T05:41:51.898Z,37.78
2023-02-07T05:42:54.596Z,38.95
2023-02-07T05:43:56.210Z,37.60
2023-02-07T05:44:57.836Z,36.38
2023-02-07T05:45:59.536Z,39.78
2023-02-07T05:47:01.161Z,37.85
2023-02-07T05:48:03.027Z,40.25
2023-02-07T05:49:04.621Z,61.35
2023-02-07T05:50:06.449Z,69.13
2023-02-07T05:51:08.097Z,70.03
2023-02-07T05:52:09.704Z,49.95
2023-02-07T05:53:11.356Z,43.83
2023-02-07T05:54:12.949Z,47.30
2023-02-07T05:55:14.567Z,43.10
2023-02-07T05:56:16.943Z,44.08
2023-02-07T05:57:18.797Z,38.08
2023-02-07T05:58:20.681Z,37.67
2023-02-07T05:59:22.295Z,41.72
2023-02-07T06:00:24.072Z,37.30
2023-02-07T06:01:26.306Z,41.35
2023-02-07T06:02:28.037Z,37.03
2023-02-07T06:03:29.784Z,35.60
2023-02-07T06:04:31.432Z,38.08
2023-02-07T06:05:33.882Z,40.20
2023-02-07T06:06:35.702Z,49.85
2023-02-07T06:07:37.289Z,69.50
2023-02-07T06:08:38.958Z,74.53
2023-02-07T06:09:40.558Z,66.35
2023-02-07T06:10:42.163Z,59.55
2023-02-07T06:11:45.083Z,54.80
2023-02-07T06:12:46.723Z,45.25
2023-02-07T06:13:48.959Z,41.08
2023-02-07T06:14:50.634Z,43.63
2023-02-07T06:15:52.278Z,39.70
2023-02-07T06:16:54.542Z,40.55
2023-02-07T06:17:56.469Z,38.22
2023-02-07T06:18:58.689Z,53.33
2023-02-07T06:20:00.298Z,43.75
2023-02-07T06:21:01.930Z,44.85
2023-02-07T06:22:03.888Z,38.67
2023-02-07T06:23:05.484Z,39.83
2023-02-07T06:24:08.111Z,41.72
2023-02-07T06:25:11.925Z,43.92
2023-02-07T06:26:13.660Z,38.65
2023-02-07T06:27:15.329Z,40.15
2023-02-07T06:28:16.972Z,40.55
2023-02-07T06:29:18.770Z,57.53
2023-02-07T06:30:20.526Z,49.97
2023-02-07T06:31:22.246Z,51.88
2023-02-07T06:32:24.009Z,52.45
2023-02-07T06:33:25.640Z,47.97
2023-02-07T06:34:27.321Z,48.78
2023-02-07T06:35:28.908Z,54.78
2023-02-07T06:36:30.558Z,49.58
2023-02-07T06:37:32.199Z,52.80
2023-02-07T06:38:33.932Z,52.33
2023-02-07T06:39:35.826Z,55.35
2023-02-07T06:40:37.437Z,47.03
2023-02-07T06:41:39.143Z,46.58
2023-02-07T06:42:41.454Z,46.17
2023-02-07T06:43:43.067Z,43.60
2023-02-07T06:44:44.663Z,40.17
2023-02-07T06:45:47.074Z,39.88
2023-02-07T06:46:48.696Z,43.45
2023-02-07T06:47:50.348Z,44.50
2023-02-07T06:48:52.014Z,46.42
2023-02-07T06:49:53.659Z,47.60
2023-02-07T06:50:56.478Z,49.63
2023-02-07T06:51:58.086Z,43.80
2023-02-07T06:53:02.661Z,42.53
2023-02-07T06:54:08.329Z,45.80
2023-02-07T06:55:09.981Z,37.95
2023-02-07T06:56:11.566Z,38.70
2023-02-07T06:57:13.215Z,38.60
2023-02-07T06:58:14.913Z,39.40
2023-02-07T06:59:16.695Z,36.55
2023-02-07T07:00:18.604Z,42.40
2023-02-07T07:01:20.930Z,39.45
2023-02-07T07:02:22.772Z,40.90
2023-02-07T07:03:28.530Z,40.25
2023-02-07T07:04:30.822Z,45.25
2023-02-07T07:05:32.609Z,44.35
2023-02-07T07:06:34.225Z,48.97
2023-02-07T07:07:35.869Z,43.17
2023-02-07T07:08:37.500Z,40.50
2023-02-07T07:09:39.182Z,41.05
2023-02-07T07:10:40.926Z,39.67
2023-02-07T07:11:44.120Z,37.30
2023-02-07T07:12:46.916Z,41.25
2023-02-07T07:13:48.549Z,38.67
2023-02-07T07:14:50.259Z,41.13
2023-02-07T07:15:52.003Z,41.83
2023-02-07T07:16:55.837Z,38.10
2023-02-07T07:17:58.518Z,39.97
2023-02-07T07:19:00.130Z,36.67
2023-02-07T07:20:01.788Z,40.72
2023-02-07T07:21:03.493Z,40.17
2023-02-07T07:22:05.100Z,37.70
2023-02-07T07:23:06.818Z,44.50
2023-02-07T07:24:08.574Z,41.95
2023-02-07T07:25:10.266Z,38.47
2023-02-07T07:26:11.949Z,45.67
2023-02-07T07:27:13.544Z,48.70
2023-02-07T07:28:15.201Z,47.05
2023-02-07T07:29:17.756Z,44.72
2023-02-07T07:30:19.445Z,48.15
2023-02-07T07:31:21.150Z,47.33
2023-02-07T07:32:33.609Z,45.50
2023-02-07T07:33:36.268Z,44.08
2023-02-07T07:34:38.132Z,45.50
2023-02-07T07:35:39.890Z,55.40
2023-02-07T07:36:41.828Z,48.67
2023-02-07T07:37:43.446Z,49.97
2023-02-07T07:38:47.465Z,54.80
2023-02-07T07:39:49.475Z,54.47
2023-02-07T07:40:51.094Z,56.72
2023-02-07T07:41:52.779Z,51.80
2023-02-07T07:42:54.534Z,53.85
2023-02-07T07:43:56.258Z,49.60
2023-02-07T07:44:57.921Z,57.28
2023-02-07T07:46:02.050Z,55.92
2023-02-07T07:47:03.669Z,52.60
2023-02-07T07:48:05.540Z,55.08
2023-02-07T07:49:07.264Z,48.83
2023-02-07T07:50:09.929Z,53.80
2023-02-07T07:51:11.591Z,51.30
2023-02-07T07:52:13.241Z,53.20
2023-02-07T07:53:15.917Z,54.05
2023-02-07T07:54:17.523Z,47.50
2023-02-07T07:55:19.152Z,52.73
2023-02-07T07:56:20.892Z,50.33
2023-02-07T07:57:22.549Z,52.20
2023-02-07T07:58:24.873Z,49.50
2023-02-07T07:59:26.546Z,55.92
2023-02-07T08:00:28.216Z,52.53
2023-02-07T08:01:29.878Z,58.08
2023-02-07T08:02:31.713Z,58.38
2023-02-07T08:03:33.410Z,61.15
2023-02-07T08:04:35.116Z,54.10
2023-02-07T08:05:36.975Z,50.77
2023-02-07T08:06:38.621Z,53.13
2023-02-07T08:07:40.290Z,55.08
2023-02-07T08:08:41.895Z,55.97
2023-02-07T08:09:43.623Z,59.15
2023-02-07T08:10:45.435Z,57.07
2023-02-07T08:11:47.039Z,59.42
2023-02-07T08:12:48.684Z,47.35
2023-02-07T08:13:50.448Z,48.70
2023-02-07T08:14:52.051Z,54.10
2023-02-07T08:15:53.655Z,50.63
2023-02-07T08:16:55.400Z,57.78
2023-02-07T08:17:57.242Z,49.03
2023-02-07T08:18:58.878Z,57.47
2023-02-07T08:20:00.545Z,53.70
2023-02-07T08:21:02.230Z,50.93
2023-02-07T08:22:04.062Z,50.90
2023-02-07T08:23:05.733Z,46.95
2023-02-07T08:24:07.575Z,52.40
2023-02-07T08:25:09.374Z,54.47
2023-02-07T08:26:10.973Z,53.43
2023-02-07T08:27:12.563Z,51.20
2023-02-07T08:28:14.371Z,49.75
2023-02-07T08:29:16.005Z,52.33
2023-02-07T08:30:19.046Z,49.88
2023-02-07T08:31:20.808Z,50.13
2023-02-07T08:32:22.610Z,54.50
2023-02-07T08:33:24.351Z,50.70
2023-02-07T08:34:28.810Z,54.00
2023-02-07T08:35:30.470Z,46.85
2023-02-07T08:36:32.154Z,52.35
2023-02-07T08:37:33.790Z,50.73
2023-02-07T08:38:35.387Z,49.10
2023-02-07T08:39:36.983Z,46.00
2023-02-07T08:40:39.188Z,46.33
2023-02-07T08:41:41.002Z,52.67
2023-02-07T08:42:42.593Z,45.88
2023-02-07T08:43:44.217Z,44.65
2023-02-07T08:44:45.886Z,42.63
2023-02-07T08:45:48.217Z,43.42
2023-02-07T08:46:49.986Z,45.78
2023-02-07T08:47:51.726Z,43.55
2023-02-07T08:48:53.357Z,42.50
2023-02-07T08:49:54.979Z,45.15
2023-02-07T08:50:59.776Z,47.78
2023-02-07T08:52:01.457Z,40.53
2023-02-07T08:53:03.158Z,43.25
2023-02-07T08:54:04.847Z,44.77
2023-02-07T08:55:06.769Z,39.72
2023-02-07T08:56:09.152Z,40.97
2023-02-07T08:57:10.732Z,36.42
2023-02-07T08:58:12.386Z,38.40
2023-02-07T08:59:14.003Z,40.80
2023-02-07T09:00:16.712Z,43.30
2023-02-07T09:01:18.472Z,41.50
2023-02-07T09:02:20.281Z,35.70
2023-02-07T09:03:21.966Z,43.22
2023-02-07T09:04:23.649Z,42.15
2023-02-07T09:05:25.378Z,39.03
2023-02-07T09:06:26.998Z,42.53
2023-02-07T09:07:28.663Z,39.47
2023-02-07T09:08:30.253Z,45.15
2023-02-07T09:09:32.820Z,46.67
2023-02-07T09:10:34.478Z,48.47
2023-02-07T09:11:36.694Z,43.45
2023-02-07T09:12:38.383Z,43.53
2023-02-07T09:13:40.254Z,45.63
2023-02-07T09:14:41.926Z,45.70
2023-02-07T09:15:43.542Z,41.40
2023-02-07T09:16:45.273Z,42.42
2023-02-07T09:17:47.079Z,43.75
2023-02-07T09:18:50.341Z,45.30
2023-02-07T09:19:52.617Z,40.42
2023-02-07T09:20:54.261Z,54.55
2023-02-07T09:21:55.941Z,50.72
2023-02-07T09:23:16.377Z,44.08
2023-02-07T09:24:18.044Z,45.70
2023-02-07T09:25:19.637Z,47.70
2023-02-07T09:26:22.368Z,40.28
2023-02-07T09:27:24.064Z,38.33
2023-02-07T09:28:25.728Z,45.72
2023-02-07T09:29:27.327Z,42.80
2023-02-07T09:30:28.974Z,47.28
2023-02-07T09:31:30.991Z,44.75
2023-02-07T09:32:32.710Z,46.57
2023-02-07T09:33:34.326Z,44.13
2023-02-07T09:34:36.055Z,55.47
2023-02-07T09:35:42.762Z,39.97
2023-02-07T09:36:44.925Z,44.80
2023-02-07T09:37:49.843Z,44.53
2023-02-07T09:38:52.960Z,41.92
2023-02-07T09:39:54.591Z,43.58
2023-02-07T09:40:57.972Z,44.03
2023-02-07T09:42:12.784Z,37.08
2023-02-07T09:43:47.760Z,48.10
2023-02-07T09:45:09.092Z,40.50
2023-02-07T09:46:22.752Z,40.55
2023-02-07T09:47:25.071Z,39.28
2023-02-07T09:48:30.418Z,39.42
2023-02-07T09:49:56.394Z,44.80
2023-02-07T09:51:00.592Z,45.60
2023-02-07T09:52:02.280Z,42.47
2023-02-07T09:53:16.590Z,37.58
2023-02-07T09:54:25.713Z,42.38
2023-02-07T09:55:32.734Z,43.03
2023-02-07T09:56:35.212Z,40.47
2023-02-07T09:57:45.563Z,40.88
2023-02-07T09:58:52.718Z,38.15
2023-02-07T10:00:30.554Z,39.55
2023-02-07T10:01:37.678Z,40.20
2023-02-07T10:02:45.026Z,38.53
2023-02-07T10:03:52.745Z,36.05
2023-02-07T10:04:55.718Z,40.67
2023-02-07T10:06:09.219Z,40.53
2023-02-07T10:07:18.779Z,38.97
2023-02-07T10:08:21.264Z,42.30
2023-02-07T10:09:29.182Z,45.30
2023-02-07T10:10:45.357Z,41.77
2023-02-07T10:12:34.901Z,37.70
2023-02-07T10:13:55.418Z,34.13
2023-02-07T10:15:07.000Z,42.17
2023-02-07T10:16:27.131Z,40.05
2023-02-07T10:17:53.346Z,38.20
2023-02-07T10:19:29.888Z,31.10
2023-02-07T10:20:41.702Z,33.77
2023-02-07T10:22:19.081Z,36.58
2023-02-07T10:23:39.453Z,37.30
2023-02-07T10:25:16.380Z,32.58
2023-02-07T10:27:00.082Z,34.42
2023-02-07T10:28:16.649Z,38.63
2023-02-07T10:29:47.860Z,35.28
2023-02-07T10:30:57.612Z,35.60
2023-02-07T10:32:00.798Z,38.53
2023-02-07T10:33:23.922Z,34.63
2023-02-07T10:34:28.620Z,40.03
2023-02-07T10:35:35.422Z,36.72
2023-02-07T10:36:37.042Z,36.95
2023-02-07T10:37:39.078Z,32.23
2023-02-07T10:38:56.957Z,32.72
2023-02-07T10:40:19.771Z,34.85
2023-02-07T10:41:57.402Z,37.70
2023-02-07T10:43:02.488Z,35.13
2023-02-07T10:44:10.413Z,38.75
2023-02-07T10:45:14.963Z,41.07
2023-02-07T10:46:20.791Z,32.78
2023-02-07T10:47:23.425Z,32.08
2023-02-07T10:48:25.050Z,40.33
2023-02-07T10:49:31.187Z,39.08
2023-02-07T10:50:32.998Z,33.95
2023-02-07T10:51:40.008Z,35.67
2023-02-07T10:52:56.209Z,40.15
2023-02-07T10:54:08.778Z,47.83
2023-02-07T10:55:11.388Z,27.90
2023-02-07T10:56:26.570Z,32.42
2023-02-07T10:57:28.851Z,36.63
2023-02-07T10:58:38.571Z,34.50
2023-02-07T10:59:45.733Z,27.15
2023-02-07T11:00:57.226Z,31.73
2023-02-07T11:01:59.582Z,28.75
2023-02-07T11:03:05.862Z,31.23
2023-02-07T11:04:42.780Z,29.50
2023-02-07T11:05:58.559Z,33.38
2023-02-07T11:07:01.085Z,29.85
2023-02-07T11:08:05.701Z,25.83
2023-02-07T11:09:20.658Z,25.00
2023-02-07T11:10:25.083Z,23.60
2023-02-07T11:11:31.890Z,21.50
2023-02-07T11:12:33.500Z,21.85
2023-02-07T11:13:45.112Z,22.70
2023-02-07T11:15:08.106Z,24.75
2023-02-07T11:16:10.685Z,29.27
2023-02-07T11:17:19.513Z,23.52
2023-02-07T11:18:45.431Z,24.90
2023-02-07T11:19:48.023Z,24.13
2023-02-07T11:20:49.665Z,22.50
2023-02-07T11:21:51.995Z,24.73
2023-02-07T11:22:54.210Z,24.77
2023-02-07T11:23:59.287Z,25.10
2023-02-07T11:25:05.162Z,23.10
2023-02-07T11:26:06.930Z,23.25
2023-02-07T11:27:17.690Z,22.13
2023-02-07T11:28:27.420Z,22.90
2023-02-07T11:29:29.728Z,19.05
2023-02-07T11:30:31.447Z,21.02
2023-02-07T11:31:35.100Z,20.33
2023-02-07T11:32:38.459Z,23.30
2023-02-07T11:33:40.092Z,21.00
2023-02-07T11:34:46.538Z,21.35
2023-02-07T11:36:13.928Z,19.08
2023-02-07T11:37:22.134Z,20.00
2023-02-07T11:38:23.815Z,20.67
2023-02-07T11:39:25.419Z,19.23
2023-02-07T11:40:42.223Z,20.67
2023-02-07T11:42:15.294Z,21.42
2023-02-07T11:43:22.175Z,18.27
2023-02-07T11:44:24.358Z,21.23
2023-02-07T11:45:26.460Z,20.88
2023-02-07T11:46:47.805Z,19.25
2023-02-07T11:47:49.768Z,19.95
2023-02-07T11:48:53.570Z,23.33
2023-02-07T11:49:58.330Z,21.95
2023-02-07T11:51:01.245Z,18.85
2023-02-07T11:52:02.988Z,20.15
2023-02-07T11:53:04.767Z,17.65
2023-02-07T11:54:06.574Z,19.47
2023-02-07T11:55:09.507Z,19.27
2023-02-07T11:56:38.767Z,19.42
2023-02-07T11:57:40.386Z,21.88
2023-02-07T11:58:47.170Z,21.23
2023-02-07T12:00:25.168Z,20.20
2023-02-07T12:01:32.694Z,20.30
2023-02-07T12:02:34.481Z,19.15
2023-02-07T12:03:49.323Z,22.53
2023-02-07T12:04:52.068Z,20.80
2023-02-07T12:05:58.554Z,17.75
2023-02-07T12:07:06.038Z,25.42
2023-02-07T12:08:16.794Z,20.73
2023-02-07T12:09:21.405Z,22.05
2023-02-07T12:10:25.196Z,22.20
2023-02-07T12:11:34.116Z,23.02
2023-02-07T12:12:44.585Z,19.73
2023-02-07T12:13:56.047Z,20.73
2023-02-07T12:14:59.638Z,20.15
2023-02-07T12:16:10.026Z,25.23
2023-02-07T12:17:18.479Z,21.90
2023-02-07T12:18:31.772Z,20.02
2023-02-07T12:19:43.242Z,22.45
2023-02-07T12:20:50.388Z,20.13
2023-02-07T12:22:15.650Z,19.30
2023-02-07T12:23:42.780Z,20.23
2023-02-07T12:24:53.543Z,22.35
2023-02-07T12:25:56.963Z,21.48
2023-02-07T12:27:18.239Z,24.15
2023-02-07T12:28:39.934Z,17.45
2023-02-07T12:30:06.101Z,20.33
2023-02-07T12:31:15.558Z,20.60
2023-02-07T12:32:41.613Z,18.55
2023-02-07T12:33:48.941Z,24.83
2023-02-07T12:34:55.085Z,21.48
2023-02-07T12:36:13.815Z,31.70
2023-02-07T12:37:24.309Z,37.75
2023-02-07T12:38:28.051Z,50.88
2023-02-07T12:39:58.850Z,25.65
2023-02-07T12:41:03.141Z,22.85
2023-02-07T12:42:19.101Z,24.52
2023-02-07T12:43:33.102Z,24.10
2023-02-07T12:44:40.838Z,20.55
2023-02-07T12:46:04.688Z,25.27
2023-02-07T12:47:18.371Z,23.27
2023-02-07T12:48:44.630Z,22.80
2023-02-07T12:50:04.813Z,23.73
2023-02-07T12:51:13.322Z,30.77
2023-02-07T12:52:25.220Z,27.40
2023-02-07T12:53:37.108Z,25.15
2023-02-07T12:54:49.888Z,25.17
2023-02-07T12:56:12.968Z,23.60
2023-02-07T12:57:22.171Z,25.27
2023-02-07T12:58:23.748Z,24.80
2023-02-07T12:59:56.163Z,25.40
2023-02-07T13:01:29.506Z,25.50
2023-02-07T13:02:45.807Z,25.95
2023-02-07T13:04:02.184Z,23.88
2023-02-07T13:05:41.040Z,23.35
2023-02-07T13:07:00.602Z,22.45
2023-02-07T13:08:21.135Z,22.02
2023-02-07T13:09:48.687Z,25.95
2023-02-07T13:11:32.270Z,28.43
2023-02-07T13:12:42.079Z,29.63
2023-02-07T13:14:29.399Z,27.77
2023-02-07T13:16:09.630Z,27.98
2023-02-07T13:17:23.600Z,29.98
2023-02-07T13:18:40.660Z,24.35
2023-02-07T13:19:53.471Z,28.95
2023-02-07T13:21:07.006Z,36.33
2023-02-07T13:22:17.817Z,57.22
2023-02-07T13:23:22.087Z,53.15
2023-02-07T13:24:23.997Z,28.27
2023-02-07T13:25:40.963Z,22.50
2023-02-07T13:27:05.271Z,26.33
2023-02-07T13:28:18.551Z,22.58
2023-02-07T13:29:20.246Z,24.95
2023-02-07T13:30:21.917Z,29.02
2023-02-07T13:31:40.195Z,25.73
2023-02-07T13:32:42.013Z,24.00
2023-02-07T13:33:43.911Z,25.38
2023-02-07T13:34:51.744Z,23.83
2023-02-07T13:35:53.437Z,28.27
2023-02-07T13:36:56.120Z,22.10
2023-02-07T13:37:58.874Z,28.40
2023-02-07T13:39:07.132Z,28.48
2023-02-07T13:40:22.708Z,23.35
2023-02-07T13:41:24.410Z,21.67
2023-02-07T13:42:47.166Z,21.38
2023-02-07T13:44:10.591Z,23.13
2023-02-07T13:45:28.820Z,22.52
2023-02-07T13:47:02.734Z,31.52
2023-02-07T13:48:07.818Z,25.57
2023-02-07T13:49:27.882Z,24.65
2023-02-07T13:50:47.638Z,23.50
2023-02-07T13:51:55.586Z,24.48
2023-02-07T13:53:04.448Z,22.98
2023-02-07T13:54:20.991Z,24.08
2023-02-07T13:55:37.743Z,27.92
2023-02-07T13:56:58.377Z,25.63
2023-02-07T13:58:18.576Z,29.45
2023-02-07T13:59:41.301Z,27.85
2023-02-07T14:00:55.928Z,29.70
2023-02-07T14:01:58.634Z,26.67
2023-02-07T14:03:01.960Z,26.65
2023-02-07T14:04:07.559Z,26.67
2023-02-07T14:05:11.243Z,27.20
2023-02-07T14:06:23.079Z,25.25
2023-02-07T14:07:29.002Z,24.00
2023-02-07T14:08:30.656Z,21.17
2023-02-07T14:09:42.638Z,23.63
2023-02-07T14:10:56.684Z,26.45
2023-02-07T14:12:05.519Z,24.57
2023-02-07T14:13:07.792Z,26.65
2023-02-07T14:14:25.391Z,28.02